createdAt,value
2023-01-03T00:01:48.046Z,60.09
2023-01-03T00:04:17.122Z,59.67
2023-01-03T00:06:50.455Z,59.64
2023-01-03T00:09:21.490Z,60.11
2023-01-03T00:12:09.644Z,60.05
2023-01-03T00:14:38.443Z,59.62
2023-01-03T00:17:07.086Z,60.04
2023-01-03T00:19:37.460Z,59.95
2023-01-03T00:22:05.275Z,59.79
2023-01-03T00:24:32.968Z,59.72
2023-01-03T00:27:00.939Z,59.42
2023-01-03T00:29:28.754Z,59.57
2023-01-03T00:31:56.923Z,59.98
2023-01-03T00:34:24.473Z,59.33
2023-01-03T00:36:52.243Z,59.38
2023-01-03T00:39:19.882Z,59.59
2023-01-03T00:41:47.542Z,59.38
2023-01-03T00:44:15.136Z,59.32
2023-01-03T00:46:42.827Z,59.22
2023-01-03T00:49:10.734Z,59.70
2023-01-03T00:51:40.477Z,59.73
2023-01-03T00:54:09.142Z,59.44
2023-01-03T00:56:39.815Z,59.61
2023-01-03T00:59:08.516Z,59.09
2023-01-03T01:01:45.800Z,59.11
2023-01-03T01:04:14.493Z,59.26
2023-01-03T01:06:45.246Z,59.22
2023-01-03T01:09:22.768Z,59.18
2023-01-03T01:11:51.265Z,58.74
2023-01-03T01:14:22.356Z,58.96
2023-01-03T01:16:57.277Z,58.38
2023-01-03T01:19:29.751Z,59.03
2023-01-03T01:21:57.721Z,58.91
2023-01-03T01:24:25.647Z,58.63
2023-01-03T01:26:53.897Z,58.54
2023-01-03T01:29:22.061Z,58.50
2023-01-03T01:31:49.965Z,58.51
2023-01-03T01:34:17.833Z,58.59
2023-01-03T01:36:46.578Z,58.69
2023-01-03T01:39:17.026Z,58.50
2023-01-03T01:42:04.641Z,58.01
2023-01-03T01:45:13.170Z,57.65
2023-01-03T01:47:46.461Z,57.98
2023-01-03T01:50:30.802Z,58.00
2023-01-03T01:53:02.288Z,57.86
2023-01-03T01:55:39.174Z,57.66
2023-01-03T01:58:08.733Z,58.09
2023-01-03T02:00:37.570Z,57.77
2023-01-03T02:03:05.462Z,57.95
2023-01-03T02:05:35.330Z,57.67
2023-01-03T02:08:03.977Z,58.00
2023-01-03T02:11:02.150Z,57.36
2023-01-03T02:13:49.100Z,57.05
2023-01-03T02:16:46.126Z,57.35
2023-01-03T02:19:40.775Z,56.87
2023-01-03T02:22:32.982Z,57.21
2023-01-03T02:25:28.791Z,57.25
2023-01-03T02:28:13.140Z,56.45
2023-01-03T02:30:51.866Z,56.65
2023-01-03T02:33:25.189Z,57.32
2023-01-03T02:36:20.915Z,56.94
2023-01-03T02:38:56.671Z,57.20
2023-01-03T02:41:46.008Z,57.05
2023-01-03T02:44:19.358Z,57.06
2023-01-03T02:46:55.367Z,57.49
2023-01-03T02:49:51.607Z,57.36
2023-01-03T02:52:24.526Z,57.38
2023-01-03T02:54:58.768Z,57.74
2023-01-03T02:57:44.919Z,57.66
2023-01-03T03:00:16.707Z,57.52
2023-01-03T03:02:51.995Z,58.10
2023-01-03T03:05:31.706Z,58.92
2023-01-03T03:07:59.874Z,59.27
2023-01-03T03:10:46.838Z,59.40
2023-01-03T03:13:31.604Z,60.58
2023-01-03T03:16:09.989Z,61.51
2023-01-03T03:18:59.488Z,61.59
2023-01-03T03:21:52.383Z,61.90
2023-01-03T03:24:47.013Z,62.06
2023-01-03T03:27:36.841Z,62.31
2023-01-03T03:30:07.775Z,62.73
2023-01-03T03:32:36.581Z,62.97
2023-01-03T03:35:09.109Z,63.05
2023-01-03T03:37:40.310Z,63.54
2023-01-03T03:40:27.580Z,64.02
2023-01-03T03:43:29.736Z,64.77
2023-01-03T03:46:21.996Z,65.47
2023-01-03T03:49:21.582Z,65.32
2023-01-03T03:51:51.209Z,64.70
2023-01-03T03:54:22.585Z,65.12
2023-01-03T03:56:56.739Z,65.71
2023-01-03T03:59:27.554Z,65.73
2023-01-03T04:01:58.485Z,65.77
2023-01-03T04:04:33.125Z,66.07
2023-01-03T04:07:02.438Z,66.20
2023-01-03T04:09:30.171Z,66.21
2023-01-03T04:11:57.665Z,66.52
2023-01-03T04:14:25.278Z,66.77
2023-01-03T04:16:52.955Z,66.63
2023-01-03T04:19:20.645Z,66.72
2023-01-03T04:21:48.228Z,66.76
2023-01-03T04:24:15.891Z,67.19
2023-01-03T04:26:43.358Z,66.93
2023-01-03T04:29:10.886Z,67.21
2023-01-03T04:31:38.407Z,67.40
2023-01-03T04:34:06.081Z,67.80
2023-01-03T04:36:33.569Z,67.86
2023-01-03T04:39:01.072Z,67.98
2023-01-03T04:41:28.772Z,68.31
2023-01-03T04:44:02.477Z,67.81
2023-01-03T04:46:35.190Z,68.72
2023-01-03T04:49:03.327Z,68.61
2023-01-03T04:51:31.468Z,68.33
2023-01-03T04:54:17.805Z,68.50
2023-01-03T04:56:45.320Z,68.94
2023-01-03T04:59:12.737Z,68.88
2023-01-03T05:01:40.416Z,68.49
2023-01-03T05:04:08.734Z,69.07
2023-01-03T05:06:36.270Z,69.63
2023-01-03T05:09:03.828Z,69.83
2023-01-03T05:11:31.339Z,70.04
2023-01-03T05:13:58.773Z,70.39
2023-01-03T05:16:26.450Z,69.96
2023-01-03T05:18:53.910Z,70.29
2023-01-03T05:21:41.025Z,70.23
2023-01-03T05:24:31.034Z,70.82
2023-01-03T05:27:01.909Z,71.05
2023-01-03T05:29:30.961Z,71.02
2023-01-03T05:31:58.497Z,71.21
2023-01-03T05:34:26.097Z,71.27
2023-01-03T05:36:53.603Z,71.32
2023-01-03T05:39:21.196Z,71.76
2023-01-03T05:42:01.044Z,71.55
2023-01-03T05:44:33.710Z,71.93
2023-01-03T05:47:03.995Z,71.41
2023-01-03T05:49:31.643Z,71.24
2023-01-03T05:51:59.167Z,71.34
2023-01-03T05:54:26.856Z,71.10
2023-01-03T05:56:54.477Z,71.00
2023-01-03T05:59:22.865Z,71.50
2023-01-03T06:01:50.817Z,71.74
2023-01-03T06:04:18.754Z,71.55
2023-01-03T06:06:48.336Z,72.01
2023-01-03T06:09:16.402Z,72.51
2023-01-03T06:11:44.349Z,72.01
2023-01-03T06:14:11.834Z,72.09
2023-01-03T06:16:58.188Z,72.55
2023-01-03T06:19:25.869Z,72.53
2023-01-03T06:21:53.433Z,72.83
2023-01-03T06:24:20.997Z,73.04
2023-01-03T06:26:48.515Z,73.52
2023-01-03T06:29:16.190Z,73.30
2023-01-03T06:31:43.732Z,73.77
2023-01-03T06:34:11.297Z,73.74
2023-01-03T06:36:38.845Z,73.90
2023-01-03T06:39:06.367Z,73.77
2023-01-03T06:41:33.904Z,74.04
2023-01-03T06:44:01.473Z,74.03
2023-01-03T06:46:47.606Z,74.05
2023-01-03T06:49:36.247Z,74.20
2023-01-03T06:52:32.327Z,74.42
2023-01-03T06:54:59.977Z,73.30
2023-01-03T06:57:27.654Z,73.09
2023-01-03T06:59:55.919Z,73.29
2023-01-03T07:02:23.678Z,73.37
2023-01-03T07:04:51.289Z,73.02
2023-01-03T07:07:18.996Z,73.30
2023-01-03T07:09:46.425Z,73.46
2023-01-03T07:12:32.472Z,72.95
2023-01-03T07:15:00.041Z,73.09
2023-01-03T07:17:27.556Z,72.81
2023-01-03T07:19:55.119Z,72.96
2023-01-03T07:22:22.646Z,72.74
2023-01-03T07:24:50.242Z,72.64
2023-01-03T07:27:17.705Z,72.44
2023-01-03T07:29:46.679Z,72.63
2023-01-03T07:32:14.206Z,72.78
2023-01-03T07:34:41.698Z,73.14
2023-01-03T07:37:09.253Z,73.04
2023-01-03T07:39:36.751Z,73.36
2023-01-03T07:42:22.944Z,73.27
2023-01-03T07:44:50.552Z,72.94
2023-01-03T07:47:18.024Z,72.91
2023-01-03T07:49:45.615Z,73.10
2023-01-03T07:52:13.094Z,73.02
2023-01-03T07:54:40.679Z,73.36
2023-01-03T07:57:08.267Z,73.24
2023-01-03T07:59:35.954Z,73.35
2023-01-03T08:02:03.635Z,74.06
2023-01-03T08:04:31.450Z,73.82
2023-01-03T08:06:58.924Z,73.86
2023-01-03T08:09:45.321Z,74.06
2023-01-03T08:12:31.290Z,74.22
2023-01-03T08:14:58.862Z,74.05
2023-01-03T08:17:27.304Z,74.15
2023-01-03T08:19:54.883Z,74.72
2023-01-03T08:22:22.381Z,74.63
2023-01-03T08:24:49.954Z,74.74
2023-01-03T08:27:17.386Z,74.26
2023-01-03T08:29:46.764Z,74.50
2023-01-03T08:32:14.865Z,74.33
2023-01-03T08:34:44.513Z,73.90
2023-01-03T08:37:13.938Z,74.26
2023-01-03T08:39:51.576Z,74.24
2023-01-03T08:42:21.255Z,74.50
2023-01-03T08:44:49.884Z,73.76
2023-01-03T08:47:17.840Z,73.77
2023-01-03T08:49:45.413Z,74.15
2023-01-03T08:52:12.993Z,74.15
2023-01-03T08:54:40.563Z,74.04
2023-01-03T08:57:08.116Z,74.30
2023-01-03T08:59:35.712Z,74.49
2023-01-03T09:02:03.780Z,74.47
2023-01-03T09:04:32.859Z,74.62
2023-01-03T09:07:00.554Z,74.33
2023-01-03T09:09:28.015Z,74.74
2023-01-03T09:11:55.561Z,74.44
2023-01-03T09:14:23.111Z,74.35
2023-01-03T09:16:50.766Z,74.40
2023-01-03T09:19:18.347Z,74.41
2023-01-03T09:21:46.030Z,74.51
2023-01-03T09:24:13.519Z,74.41
2023-01-03T09:26:41.094Z,74.68
2023-01-03T09:29:08.520Z,74.59
2023-01-03T09:31:39.961Z,74.81
2023-01-03T09:34:07.972Z,74.52
2023-01-03T09:36:38.446Z,74.77
2023-01-03T09:39:06.590Z,74.81
2023-01-03T09:41:34.195Z,75.02
2023-01-03T09:44:08.072Z,75.29
2023-01-03T09:46:37.136Z,74.96
2023-01-03T09:49:07.208Z,75.17
2023-01-03T09:52:01.120Z,74.90
2023-01-03T09:54:53.341Z,75.44
2023-01-03T09:57:59.452Z,75.81
2023-01-03T10:00:51.523Z,75.69
2023-01-03T10:03:51.437Z,75.67
2023-01-03T10:06:54.388Z,76.43
2023-01-03T10:09:24.700Z,75.37
2023-01-03T10:12:12.670Z,75.98
2023-01-03T10:14:55.295Z,75.58
2023-01-03T10:17:51.508Z,76.11
2023-01-03T10:20:49.322Z,75.66
2023-01-03T10:23:18.491Z,75.45
2023-01-03T10:25:47.162Z,75.39
2023-01-03T10:28:23.461Z,75.65
2023-01-03T10:31:12.742Z,75.88
2023-01-03T10:33:46.961Z,75.76
2023-01-03T10:36:20.060Z,75.89
2023-01-03T10:38:52.914Z,74.95
2023-01-03T10:41:33.155Z,75.25
2023-01-03T10:44:03.633Z,74.93
2023-01-03T10:46:31.769Z,74.59
2023-01-03T10:49:29.503Z,75.54
2023-01-03T10:52:12.504Z,75.34
2023-01-03T10:55:01.264Z,75.10
2023-01-03T10:57:39.723Z,75.32
2023-01-03T11:00:22.539Z,75.22
2023-01-03T11:02:51.385Z,74.26
2023-01-03T11:05:22.729Z,74.97
2023-01-03T11:07:59.981Z,75.13
2023-01-03T11:10:56.621Z,74.93
2023-01-03T11:13:33.362Z,74.68
2023-01-03T11:16:03.552Z,74.00
2023-01-03T11:18:31.787Z,74.18
2023-01-03T11:21:02.280Z,74.31
2023-01-03T11:24:06.952Z,74.45
2023-01-03T11:27:03.801Z,73.87
2023-01-03T11:29:45.004Z,74.06
2023-01-03T11:32:42.000Z,74.02
2023-01-03T11:35:32.231Z,73.19
2023-01-03T11:38:02.966Z,73.40
2023-01-03T11:41:03.876Z,73.44
2023-01-03T11:43:49.778Z,73.43
2023-01-03T11:46:35.775Z,73.01
2023-01-03T11:49:44.647Z,73.31
2023-01-03T11:52:17.976Z,73.55
2023-01-03T11:54:57.361Z,73.33
2023-01-03T11:57:30.504Z,73.08
2023-01-03T12:00:30.476Z,73.42
2023-01-03T12:03:14.271Z,73.39
2023-01-03T12:05:48.030Z,72.98
2023-01-03T12:08:34.120Z,73.76
2023-01-03T12:11:26.640Z,73.82
2023-01-03T12:14:03.184Z,73.65
2023-01-03T12:16:40.085Z,74.22
2023-01-03T12:19:19.615Z,74.52
2023-01-03T12:22:05.250Z,74.79
2023-01-03T12:25:04.394Z,74.56
2023-01-03T12:28:15.108Z,75.29
2023-01-03T12:31:03.748Z,75.00
2023-01-03T12:33:45.624Z,75.45
2023-01-03T12:36:53.228Z,75.64
2023-01-03T12:39:33.741Z,75.15
2023-01-03T12:42:29.276Z,75.42
2023-01-03T12:45:09.421Z,75.46
2023-01-03T12:47:47.103Z,75.59
2023-01-03T12:50:21.613Z,74.92
2023-01-03T12:53:06.621Z,75.98
2023-01-03T12:55:34.051Z,75.38
2023-01-03T12:58:26.819Z,75.97
2023-01-03T13:01:10.126Z,75.81
2023-01-03T13:03:52.874Z,76.01
2023-01-03T13:06:40.226Z,76.56
2023-01-03T13:09:23.889Z,76.83
2023-01-03T13:11:55.151Z,76.19
2023-01-03T13:14:28.442Z,76.69
2023-01-03T13:17:05.063Z,76.01
2023-01-03T13:19:35.398Z,76.61
2023-01-03T13:22:06.073Z,76.38
2023-01-03T13:24:53.540Z,77.63
2023-01-03T13:27:33.819Z,77.10
2023-01-03T13:30:01.331Z,76.79
2023-01-03T13:32:37.920Z,76.89
2023-01-03T13:35:05.965Z,76.54
2023-01-03T13:37:48.578Z,77.80
2023-01-03T13:40:51.958Z,77.57
2023-01-03T13:43:22.612Z,77.34
2023-01-03T13:45:53.378Z,76.87
2023-01-03T13:48:26.859Z,77.60
2023-01-03T13:51:14.378Z,77.55
2023-01-03T13:54:00.800Z,77.60
2023-01-03T13:56:52.918Z,77.00
2023-01-03T13:59:53.197Z,77.17
2023-01-03T14:02:46.823Z,76.85
2023-01-03T14:05:38.829Z,77.00
2023-01-03T14:08:41.714Z,77.43
2023-01-03T14:11:41.185Z,77.44
2023-01-03T14:14:16.750Z,77.14
2023-01-03T14:16:48.588Z,77.17
2023-01-03T14:19:24.687Z,77.20
2023-01-03T14:22:30.275Z,77.49
2023-01-03T14:24:59.892Z,76.46
2023-01-03T14:27:40.710Z,76.76
2023-01-03T14:30:29.730Z,76.67
2023-01-03T14:32:58.545Z,76.26
2023-01-03T14:35:36.047Z,76.31
2023-01-03T14:38:07.033Z,75.94
2023-01-03T14:40:35.058Z,76.17
2023-01-03T14:43:05.427Z,75.99
2023-01-03T14:45:33.064Z,75.52
2023-01-03T14:48:00.548Z,75.85
2023-01-03T14:50:30.315Z,75.78
2023-01-03T14:53:00.435Z,75.58
2023-01-03T14:55:32.693Z,75.59
2023-01-03T14:58:05.057Z,75.60
2023-01-03T15:00:36.301Z,75.52
2023-01-03T15:03:04.838Z,75.61
2023-01-03T15:05:34.003Z,75.59
2023-01-03T15:08:09.492Z,75.74
2023-01-03T15:10:45.369Z,75.69
2023-01-03T15:13:45.754Z,75.85
2023-01-03T15:16:35.574Z,75.54
2023-01-03T15:19:20.385Z,75.53
2023-01-03T15:21:47.980Z,75.18
2023-01-03T15:24:18.881Z,75.36
2023-01-03T15:26:48.819Z,75.09
2023-01-03T15:29:19.506Z,75.49
2023-01-03T15:31:54.081Z,75.88
2023-01-03T15:34:30.392Z,75.59
2023-01-03T15:37:21.963Z,75.33
2023-01-03T15:39:52.534Z,75.14
2023-01-03T15:42:54.516Z,75.51
2023-01-03T15:45:39.190Z,75.57
2023-01-03T15:48:14.084Z,75.37
2023-01-03T15:50:52.943Z,75.68
2023-01-03T15:53:37.954Z,75.36
2023-01-03T15:56:19.767Z,75.27
2023-01-03T15:58:53.555Z,75.16
2023-01-03T16:01:22.857Z,75.04
2023-01-03T16:03:52.169Z,75.26
2023-01-03T16:06:20.010Z,74.99
2023-01-03T16:08:47.599Z,75.13
2023-01-03T16:11:20.768Z,75.06
2023-01-03T16:13:56.625Z,74.90
2023-01-03T16:16:39.920Z,75.14
2023-01-03T16:19:17.653Z,75.18
2023-01-03T16:22:02.456Z,74.65
2023-01-03T16:24:33.149Z,74.69
2023-01-03T16:27:12.340Z,75.13
2023-01-03T16:29:39.842Z,74.59
2023-01-03T16:32:11.501Z,75.04
2023-01-03T16:34:38.955Z,74.80
2023-01-03T16:37:10.036Z,74.51
2023-01-03T16:39:41.113Z,74.54
2023-01-03T16:42:13.285Z,74.76
2023-01-03T16:44:43.142Z,74.51
2023-01-03T16:47:18.954Z,74.98
2023-01-03T16:49:53.495Z,74.97
2023-01-03T16:52:26.324Z,74.96
2023-01-03T16:54:54.676Z,75.05
2023-01-03T16:57:22.975Z,75.19
2023-01-03T16:59:50.502Z,75.13
2023-01-03T17:03:14.567Z,74.94
2023-01-03T17:05:42.246Z,74.98
2023-01-03T17:08:12.475Z,75.27
2023-01-03T17:10:41.895Z,75.48
2023-01-03T17:13:28.213Z,75.72
2023-01-03T17:15:56.935Z,75.52
2023-01-03T17:18:27.218Z,75.33
2023-01-03T17:21:01.562Z,75.45
2023-01-03T17:23:32.500Z,75.19
2023-01-03T17:26:00.136Z,75.28
2023-01-03T17:28:27.640Z,75.25
2023-01-03T17:30:56.847Z,74.99
2023-01-03T17:33:30.404Z,75.44
2023-01-03T17:36:01.444Z,75.22
2023-01-03T17:38:31.993Z,74.97
2023-01-03T17:41:00.030Z,74.99
2023-01-03T17:43:27.760Z,74.82
2023-01-03T17:46:22.551Z,74.76
2023-01-03T17:49:09.679Z,74.61
2023-01-03T17:51:37.450Z,74.90
2023-01-03T17:54:09.745Z,75.43
2023-01-03T17:56:37.440Z,75.25
2023-01-03T17:59:04.970Z,74.97
2023-01-03T18:01:32.588Z,75.08
2023-01-03T18:04:00.181Z,74.81
2023-01-03T18:06:27.686Z,74.89
2023-01-03T18:08:56.620Z,74.98
2023-01-03T18:11:27.114Z,75.15
2023-01-03T18:13:54.619Z,74.91
2023-01-03T18:16:23.587Z,74.63
2023-01-03T18:18:51.108Z,74.83
2023-01-03T18:21:27.976Z,74.88
2023-01-03T18:23:59.192Z,75.00
2023-01-03T18:26:38.461Z,74.52
2023-01-03T18:29:06.754Z,74.58
2023-01-03T18:31:34.288Z,74.75
2023-01-03T18:34:04.601Z,74.55
2023-01-03T18:36:38.924Z,74.73
2023-01-03T18:39:12.186Z,75.39
2023-01-03T18:41:40.552Z,74.56
2023-01-03T18:44:21.358Z,74.54
2023-01-03T18:46:52.445Z,74.62
2023-01-03T18:49:20.060Z,74.69
2023-01-03T18:51:52.293Z,74.88
2023-01-03T18:54:20.235Z,75.02
2023-01-03T18:56:47.923Z,74.44
2023-01-03T18:59:22.528Z,74.94
2023-01-03T19:01:50.149Z,74.82
2023-01-03T19:04:18.046Z,74.46
2023-01-03T19:06:47.667Z,74.65
2023-01-03T19:09:33.156Z,75.35
2023-01-03T19:12:01.244Z,74.08
2023-01-03T19:14:28.749Z,74.47
2023-01-03T19:16:56.528Z,74.58
2023-01-03T19:19:24.055Z,75.06
2023-01-03T19:21:51.585Z,74.94
2023-01-03T19:24:38.126Z,75.63
2023-01-03T19:27:06.527Z,75.19
2023-01-03T19:29:37.200Z,75.24
2023-01-03T19:32:10.854Z,75.26
2023-01-03T19:34:38.320Z,75.29
2023-01-03T19:37:05.901Z,75.53
2023-01-03T19:39:37.408Z,75.23
2023-01-03T19:42:30.862Z,75.51
2023-01-03T19:45:00.471Z,75.67
2023-01-03T19:47:28.476Z,75.61
2023-01-03T19:49:57.447Z,75.36
2023-01-03T19:52:25.013Z,75.01
2023-01-03T19:54:52.512Z,75.29
2023-01-03T19:57:27.428Z,75.17
2023-01-03T19:59:58.505Z,74.86
2023-01-03T20:02:44.574Z,74.66
2023-01-03T20:05:20.022Z,74.34
2023-01-03T20:07:48.573Z,74.29
2023-01-03T20:10:26.602Z,74.05
2023-01-03T20:12:56.173Z,73.95
2023-01-03T20:15:36.679Z,73.83
2023-01-03T20:18:06.990Z,73.67
2023-01-03T20:20:35.188Z,73.77
2023-01-03T20:23:07.842Z,74.18
2023-01-03T20:25:37.415Z,73.74
2023-01-03T20:28:06.032Z,73.79
2023-01-03T20:30:34.539Z,74.02
2023-01-03T20:33:02.364Z,74.13
2023-01-03T20:38:24.968Z,73.86
2023-01-03T20:40:56.718Z,74.16
2023-01-03T20:43:24.507Z,74.13
2023-01-03T20:45:57.784Z,73.84
2023-01-03T20:48:26.656Z,73.86
2023-01-03T20:50:55.288Z,73.62
2023-01-03T20:53:25.486Z,73.94
2023-01-03T20:55:54.087Z,73.44
2023-01-03T20:58:25.649Z,73.45
2023-01-03T21:00:59.952Z,73.36
2023-01-03T21:03:32.900Z,73.16
2023-01-03T21:06:00.509Z,73.07
2023-01-03T21:08:46.520Z,73.19
2023-01-03T21:11:14.089Z,72.79
2023-01-03T21:13:42.370Z,72.79
2023-01-03T21:16:33.129Z,72.28
2023-01-03T21:19:18.939Z,72.20
2023-01-03T21:21:49.361Z,71.94
2023-01-03T21:24:18.809Z,72.19
2023-01-03T21:26:46.351Z,71.58
2023-01-03T21:29:16.566Z,71.87
2023-01-03T21:31:44.233Z,71.89
2023-01-03T21:34:18.325Z,71.29
2023-01-03T21:36:46.053Z,71.97
2023-01-03T21:39:13.791Z,71.78
2023-01-03T21:42:02.997Z,71.79
2023-01-03T21:44:30.533Z,71.93
2023-01-03T21:46:57.977Z,71.89
2023-01-03T21:49:25.404Z,71.72
2023-01-03T21:51:52.883Z,72.26
2023-01-03T21:54:20.430Z,72.13
2023-01-03T21:56:47.961Z,72.32
2023-01-03T21:59:16.367Z,72.00
2023-01-03T22:02:03.799Z,72.16
2023-01-03T22:04:32.193Z,71.69
2023-01-03T22:07:02.757Z,71.69
2023-01-03T22:09:50.105Z,71.68
2023-01-03T22:12:19.468Z,71.85
2023-01-03T22:14:47.355Z,71.61
2023-01-03T22:17:15.681Z,71.86
2023-01-03T22:19:43.307Z,71.87
2023-01-03T22:22:11.069Z,72.38
2023-01-03T22:24:38.555Z,72.48
2023-01-03T22:27:06.498Z,72.52
2023-01-03T22:29:34.467Z,72.53
2023-01-03T22:32:02.047Z,72.50
2023-01-03T22:34:29.657Z,72.71
2023-01-03T22:36:57.240Z,72.74
2023-01-03T22:39:25.105Z,72.56
2023-01-03T22:41:52.569Z,72.36
2023-01-03T22:44:20.047Z,72.77
2023-01-03T22:46:47.744Z,72.95
2023-01-03T22:49:15.241Z,72.89
2023-01-03T22:51:42.675Z,72.71
2023-01-03T22:54:10.265Z,72.50
2023-01-03T22:56:37.725Z,72.87
2023-01-03T22:59:05.383Z,72.92
2023-01-03T23:01:32.879Z,72.29
2023-01-03T23:04:01.253Z,71.92
2023-01-03T23:06:32.035Z,72.19
2023-01-03T23:09:01.347Z,71.64
2023-01-03T23:11:49.583Z,72.04
2023-01-03T23:14:19.488Z,72.11
2023-01-03T23:16:48.128Z,72.03
2023-01-03T23:19:17.525Z,71.71
2023-01-03T23:21:45.634Z,72.23
2023-01-03T23:24:15.972Z,72.48
2023-01-03T23:26:46.080Z,72.49
2023-01-03T23:29:15.088Z,72.16
2023-01-03T23:31:43.203Z,72.21
2023-01-03T23:34:13.168Z,72.23
2023-01-03T23:36:43.407Z,72.18
2023-01-03T23:39:13.774Z,72.35
2023-01-03T23:41:41.396Z,72.81
2023-01-03T23:44:09.293Z,72.29
2023-01-03T23:46:36.867Z,72.65
2023-01-03T23:49:06.564Z,72.64
2023-01-03T23:51:34.032Z,72.70
2023-01-03T23:54:01.535Z,72.69
2023-01-03T23:56:29.001Z,72.49
2023-01-03T23:58:56.521Z,72.35
